Time;durP1;ratioP1;P1;durP2;ratioP2;P2;SDS_P1;SDS_P2;PMS_P1;PMS_P2;Temp;Humidity;BMP_temperature;BMP_pressure;BME280_temperature;BME280_humidity;BME280_pressure;Samples;Min_cycle;Max_cycle;Signal;HPM_P1;HPM_P2
2023/12/19 00:00:49;;;;;;;24.40;15.97;;;;;;;;;;5078246;28;20547;-88
2023/12/19 00:03:16;;;;;;;23.20;14.77;;;;;;;;;;5074609;28;20491;-87
2023/12/19 00:05:43;;;;;;;29.17;16.83;;;;;;;;;;5074067;28;20518;-88
2023/12/19 00:08:09;;;;;;;26.60;17.20;;;;;;;;;;5076588;28;20535;-88
2023/12/19 00:10:36;;;;;;;23.00;15.40;;;;;;;;;;5076488;28;20531;-88
2023/12/19 00:13:02;;;;;;;24.30;14.77;;;;;;;;;;5078362;28;20452;-88
2023/12/19 00:15:29;;;;;;;25.10;16.10;;;;;;;;;;5078046;28;20544;-88
2023/12/19 00:17:56;;;;;;;22.13;16.23;;;;;;;;;;5077613;28;20490;-89
2023/12/19 00:20:23;;;;;;;20.07;14.70;;;;;;;;;;5078473;28;20503;-89
2023/12/19 00:22:49;;;;;;;29.27;17.40;;;;;;;;;;5069478;28;20459;-90
2023/12/19 00:25:16;;;;;;;28.93;17.23;;;;;;;;;;5074443;28;20556;-88
2023/12/19 00:27:43;;;;;;;23.70;15.60;;;;;;;;;;5076636;28;20448;-89
2023/12/19 00:30:09;;;;;;;23.43;15.93;;;;;;;;;;5077570;28;20531;-89
2023/12/19 00:32:36;;;;;;;25.00;16.00;;;;;;;;;;5075307;28;20525;-88
2023/12/19 00:35:04;;;;;;;25.80;15.63;;;;;;;;;;5073616;28;20974;-89
2023/12/19 00:37:30;;;;;;;23.53;16.20;;;;;;;;;;5077669;28;20590;-87
2023/12/19 00:39:57;;;;;;;25.90;16.67;;;;;;;;;;5079651;28;20495;-89
2023/12/19 00:42:23;;;;;;;26.40;16.47;;;;;;;;;;5081464;28;20480;-89
2023/12/19 00:44:49;;;;;;;22.07;15.37;;;;;;;;;;5073778;28;20568;-89
2023/12/19 00:47:16;;;;;;;23.20;15.93;;;;;;;;;;5081933;28;20544;-89
2023/12/19 00:49:43;;;;;;;23.57;16.30;;;;;;;;;;5080048;28;20522;-90
2023/12/19 00:52:11;;;;;;;23.30;15.17;;;;;;;;;;5078659;28;20484;-89
2023/12/19 00:54:37;;;;;;;27.03;17.13;;;;;;;;;;5082170;28;20511;-89
2023/12/19 00:57:04;;;;;;;26.33;17.73;;;;;;;;;;5079091;28;20524;-90
2023/12/19 00:59:30;;;;;;;33.17;15.93;;;;;;;;;;5080297;28;20543;-89
2023/12/19 01:01:56;;;;;;;25.57;17.70;;;;;;;;;;5073479;28;20479;-89
2023/12/19 01:04:23;;;;;;;29.70;19.77;;;;;;;;;;5081054;28;20515;-89
2023/12/19 01:06:49;;;;;;;34.67;17.60;;;;;;;;;;5080229;28;20542;-88
2023/12/19 01:09:17;;;;;;;26.60;16.70;;;;;;;;;;5079953;28;20889;-88
2023/12/19 01:11:46;;;;;;;28.57;17.73;;;;;;;;;;5080416;28;20526;-88
2023/12/19 01:14:13;;;;;;;29.37;17.77;;;;;;;;;;5079211;28;20456;-87
2023/12/19 01:16:39;;;;;;;27.10;17.00;;;;;;;;;;5079349;28;20512;-89
2023/12/19 01:19:09;;;;;;;29.03;17.23;;;;;;;;;;5078280;28;20520;-88
2023/12/19 01:21:35;;;;;;;25.50;16.77;;;;;;;;;;5080331;28;20452;-88
2023/12/19 01:24:02;;;;;;;27.77;15.97;;;;;;;;;;5081467;28;20550;-90
2023/12/19 01:26:31;;;;;;;30.03;17.07;;;;;;;;;;5074571;28;20571;-90
2023/12/19 01:28:58;;;;;;;24.53;15.63;;;;;;;;;;5081020;28;20478;-88
2023/12/19 01:31:24;;;;;;;30.47;14.90;;;;;;;;;;5080762;28;20448;-89
2023/12/19 01:33:51;;;;;;;20.20;13.40;;;;;;;;;;5075261;28;20536;-89
2023/12/19 01:36:18;;;;;;;22.13;15.47;;;;;;;;;;5077485;28;20484;-88
2023/12/19 01:38:44;;;;;;;24.43;16.20;;;;;;;;;;5077360;28;20465;-89
2023/12/19 01:41:10;;;;;;;22.20;15.70;;;;;;;;;;5075184;28;20460;-87
2023/12/19 01:43:38;;;;;;;22.90;14.93;;;;;;;;;;5079617;28;20497;-90
2023/12/19 01:46:05;;;;;;;23.23;15.47;;;;;;;;;;5075078;28;20579;-88
2023/12/19 01:48:31;;;;;;;29.57;17.37;;;;;;;;;;5079732;28;20475;-88
2023/12/19 01:50:58;;;;;;;22.17;15.70;;;;;;;;;;5078621;28;20480;-89
2023/12/19 01:53:25;;;;;;;27.13;16.40;;;;;;;;;;5079058;28;20460;-89
2023/12/19 01:55:52;;;;;;;25.10;16.43;;;;;;;;;;5080467;28;20508;-90
2023/12/19 01:58:19;;;;;;;25.53;16.73;;;;;;;;;;5077622;28;20484;-89
2023/12/19 02:00:47;;;;;;;27.13;17.40;;;;;;;;;;5072648;28;20861;-89
2023/12/19 02:03:13;;;;;;;27.23;15.70;;;;;;;;;;5078975;28;20467;-86
2023/12/19 02:05:42;;;;;;;25.03;16.80;;;;;;;;;;5078104;28;20560;-88
2023/12/19 02:08:08;;;;;;;23.10;16.23;;;;;;;;;;5076879;28;20519;-89
2023/12/19 02:10:35;;;;;;;29.53;18.53;;;;;;;;;;5073429;28;20515;-89
2023/12/19 02:13:01;;;;;;;24.37;16.30;;;;;;;;;;5080689;28;20519;-88
2023/12/19 02:15:28;;;;;;;20.77;15.80;;;;;;;;;;5076165;28;20559;-90
2023/12/19 02:17:55;;;;;;;27.63;15.77;;;;;;;;;;5078065;28;20526;-89
2023/12/19 02:20:22;;;;;;;24.53;16.37;;;;;;;;;;5076266;28;20511;-89
2023/12/19 02:22:50;;;;;;;23.70;16.70;;;;;;;;;;5078325;28;20488;-90
2023/12/19 02:25:17;;;;;;;25.07;16.27;;;;;;;;;;5079839;28;20555;-88
2023/12/19 02:27:43;;;;;;;25.27;16.17;;;;;;;;;;5075577;28;20437;-88
2023/12/19 02:30:10;;;;;;;24.87;16.60;;;;;;;;;;5075310;28;20551;-89
2023/12/19 02:32:36;;;;;;;26.00;17.07;;;;;;;;;;5074096;28;20471;-88
2023/12/19 02:35:03;;;;;;;23.47;15.10;;;;;;;;;;5080727;28;20490;-88
2023/12/19 02:37:29;;;;;;;20.20;14.77;;;;;;;;;;5073142;28;20487;-89
2023/12/19 02:39:57;;;;;;;24.13;16.47;;;;;;;;;;5077480;28;21035;-87
2023/12/19 02:42:23;;;;;;;24.10;16.97;;;;;;;;;;5078988;28;21648;-87
2023/12/19 02:44:50;;;;;;;22.10;16.20;;;;;;;;;;5074609;28;20497;-89
2023/12/19 02:47:16;;;;;;;21.57;15.60;;;;;;;;;;5077637;28;20464;-88
2023/12/19 02:49:42;;;;;;;23.03;15.13;;;;;;;;;;5078075;28;20460;-89
2023/12/19 02:52:09;;;;;;;20.87;16.60;;;;;;;;;;5068601;28;20528;-89
2023/12/19 02:54:35;;;;;;;27.03;18.10;;;;;;;;;;5078949;28;20547;-88
2023/12/19 02:57:03;;;;;;;22.30;16.93;;;;;;;;;;5073476;28;20480;-88
2023/12/19 02:59:29;;;;;;;19.73;15.63;;;;;;;;;;5069448;28;20898;-88
2023/12/19 03:01:56;;;;;;;23.23;17.00;;;;;;;;;;5073714;28;20511;-88
2023/12/19 03:04:22;;;;;;;23.20;16.97;;;;;;;;;;5078048;28;20578;-87
2023/12/19 03:06:49;;;;;;;22.13;16.63;;;;;;;;;;5074541;28;20440;-89
2023/12/19 03:09:15;;;;;;;23.43;16.53;;;;;;;;;;5078889;28;21061;-87
2023/12/19 03:11:41;;;;;;;19.40;16.00;;;;;;;;;;5071875;28;20520;-88
2023/12/19 03:14:09;;;;;;;19.23;13.07;;;;;;;;;;5076930;28;20467;-88
2023/12/19 03:16:35;;;;;;;18.30;13.47;;;;;;;;;;5077293;28;20456;-87
2023/12/19 03:19:02;;;;;;;16.33;12.70;;;;;;;;;;5073641;28;20524;-87
2023/12/19 03:21:28;;;;;;;17.80;13.27;;;;;;;;;;5080136;28;20436;-87
2023/12/19 03:23:54;;;;;;;17.63;13.27;;;;;;;;;;5076988;28;20516;-89
2023/12/19 03:26:21;;;;;;;14.63;12.47;;;;;;;;;;5075079;28;21003;-89
2023/12/19 03:28:48;;;;;;;17.50;13.00;;;;;;;;;;5073844;28;20444;-88
2023/12/19 03:31:15;;;;;;;17.73;13.23;;;;;;;;;;5068917;28;20495;-90
2023/12/19 03:33:42;;;;;;;15.77;11.77;;;;;;;;;;5074594;28;20821;-90
2023/12/19 03:36:08;;;;;;;18.30;14.07;;;;;;;;;;5072309;28;20528;-88
2023/12/19 03:38:35;;;;;;;18.80;12.80;;;;;;;;;;5078190;28;20471;-88
2023/12/19 03:41:01;;;;;;;15.93;12.33;;;;;;;;;;5077892;28;20456;-89
2023/12/19 03:43:28;;;;;;;14.50;11.90;;;;;;;;;;5078357;28;20483;-88
2023/12/19 03:46:00;;;;;;;13.93;11.00;;;;;;;;;;5071768;28;20527;-89
2023/12/19 03:48:28;;;;;;;12.90;10.50;;;;;;;;;;5079888;28;20459;-88
2023/12/19 03:50:54;;;;;;;16.17;11.80;;;;;;;;;;5076048;28;20452;-88
2023/12/19 03:53:21;;;;;;;15.90;11.53;;;;;;;;;;5077173;28;20452;-89
2023/12/19 03:55:47;;;;;;;16.13;10.90;;;;;;;;;;5074763;28;21215;-89
2023/12/19 03:58:14;;;;;;;13.63;9.73;;;;;;;;;;5076690;28;20528;-87
2023/12/19 04:00:40;;;;;;;16.97;11.07;;;;;;;;;;5063695;28;20484;-87
2023/12/19 04:03:07;;;;;;;15.80;9.57;;;;;;;;;;5075713;28;20469;-88
2023/12/19 04:05:34;;;;;;;19.33;12.60;;;;;;;;;;5076761;28;20519;-89
2023/12/19 04:08:01;;;;;;;17.10;11.13;;;;;;;;;;5074198;28;20468;-88
2023/12/19 04:10:27;;;;;;;15.93;12.93;;;;;;;;;;5070014;28;20544;-88
2023/12/19 04:12:55;;;;;;;16.80;12.00;;;;;;;;;;5075655;28;20467;-87
2023/12/19 04:15:21;;;;;;;16.97;12.00;;;;;;;;;;5078062;28;20448;-87
2023/12/19 04:17:47;;;;;;;15.80;11.83;;;;;;;;;;5078072;28;20460;-87
2023/12/19 04:20:14;;;;;;;17.57;11.80;;;;;;;;;;5078647;28;20457;-88
2023/12/19 04:22:42;;;;;;;16.43;12.00;;;;;;;;;;5079315;28;20507;-89
2023/12/19 04:25:09;;;;;;;16.67;12.60;;;;;;;;;;5075417;28;20459;-87
2023/12/19 04:27:35;;;;;;;17.20;13.07;;;;;;;;;;5076614;28;20518;-90
2023/12/19 04:30:02;;;;;;;20.33;13.07;;;;;;;;;;5077093;28;20534;-88
2023/12/19 04:32:28;;;;;;;17.07;13.20;;;;;;;;;;5076500;28;20456;-87
2023/12/19 04:34:55;;;;;;;17.83;12.80;;;;;;;;;;5073402;28;20998;-88
2023/12/19 04:37:21;;;;;;;19.03;13.40;;;;;;;;;;5077444;28;20469;-86
2023/12/19 04:39:49;;;;;;;17.53;12.80;;;;;;;;;;5073081;28;20452;-89
2023/12/19 04:42:17;;;;;;;18.07;12.43;;;;;;;;;;5077020;28;20447;-89
2023/12/19 04:44:43;;;;;;;15.97;12.23;;;;;;;;;;5074748;28;20498;-89
2023/12/19 04:47:10;;;;;;;14.57;11.93;;;;;;;;;;5074345;28;20567;-88
2023/12/19 04:49:37;;;;;;;15.63;12.03;;;;;;;;;;5076852;28;20447;-89
2023/12/19 04:52:04;;;;;;;20.80;13.60;;;;;;;;;;5070064;28;20740;-90
2023/12/19 04:54:31;;;;;;;15.50;12.87;;;;;;;;;;5072880;28;20464;-88
2023/12/19 04:56:58;;;;;;;20.53;12.57;;;;;;;;;;5072739;28;20556;-86
2023/12/19 04:59:25;;;;;;;22.10;12.40;;;;;;;;;;5077477;28;20512;-89
2023/12/19 05:01:51;;;;;;;19.20;14.57;;;;;;;;;;5072449;28;20462;-89
2023/12/19 05:04:18;;;;;;;17.40;13.13;;;;;;;;;;5078383;28;20527;-87
2023/12/19 05:06:44;;;;;;;20.67;13.90;;;;;;;;;;5078816;28;20482;-87
2023/12/19 05:09:11;;;;;;;17.40;14.13;;;;;;;;;;5074920;28;20483;-88
2023/12/19 05:11:37;;;;;;;18.90;13.20;;;;;;;;;;5078575;28;20487;-89
2023/12/19 05:14:05;;;;;;;19.37;13.57;;;;;;;;;;5076481;28;20491;-88
2023/12/19 05:16:31;;;;;;;16.67;13.30;;;;;;;;;;5073234;28;20440;-88
2023/12/19 05:18:57;;;;;;;16.80;12.20;;;;;;;;;;5078189;28;20482;-88
2023/12/19 05:21:23;;;;;;;14.43;11.70;;;;;;;;;;5073724;28;20448;-89
2023/12/19 05:23:50;;;;;;;18.63;12.90;;;;;;;;;;5074612;28;20237;-88
2023/12/19 05:26:16;;;;;;;14.83;11.73;;;;;;;;;;5079783;28;20491;-90
2023/12/19 05:28:42;;;;;;;15.67;11.20;;;;;;;;;;5071783;28;20461;-88
2023/12/19 05:31:10;;;;;;;17.83;13.63;;;;;;;;;;5075548;28;20468;-88
2023/12/19 05:33:37;;;;;;;17.17;12.13;;;;;;;;;;5080667;28;21034;-86
2023/12/19 05:36:04;;;;;;;18.00;12.07;;;;;;;;;;5075203;28;20487;-90
2023/12/19 05:38:31;;;;;;;13.87;11.10;;;;;;;;;;5078956;28;20463;-87
2023/12/19 05:40:57;;;;;;;16.63;12.37;;;;;;;;;;5076346;28;20519;-87
2023/12/19 05:43:24;;;;;;;18.93;12.50;;;;;;;;;;5080000;28;20455;-87
2023/12/19 05:45:51;;;;;;;16.13;12.03;;;;;;;;;;5081092;28;20492;-87
2023/12/19 05:48:20;;;;;;;16.90;12.37;;;;;;;;;;5081333;28;20463;-90
2023/12/19 05:50:46;;;;;;;15.60;11.63;;;;;;;;;;5081190;28;20460;-90
2023/12/19 05:53:13;;;;;;;10.43;8.53;;;;;;;;;;5073513;28;21031;-88
2023/12/19 05:55:39;;;;;;;12.87;9.57;;;;;;;;;;5079475;28;20523;-89
2023/12/19 05:58:06;;;;;;;13.10;10.47;;;;;;;;;;5081579;28;20538;-89
2023/12/19 06:00:32;;;;;;;13.47;10.40;;;;;;;;;;5073796;28;20472;-89
2023/12/19 06:02:59;;;;;;;12.73;9.83;;;;;;;;;;5080744;28;20460;-88
2023/12/19 06:05:26;;;;;;;12.37;10.37;;;;;;;;;;5077250;28;20462;-90
2023/12/19 06:07:53;;;;;;;14.03;10.13;;;;;;;;;;5075488;28;21027;-89
2023/12/19 06:10:19;;;;;;;13.00;9.70;;;;;;;;;;5080789;28;20474;-91
2023/12/19 06:12:46;;;;;;;13.60;9.53;;;;;;;;;;5073757;28;20464;-90
2023/12/19 06:15:13;;;;;;;11.90;9.43;;;;;;;;;;5079770;28;20456;-87
2023/12/19 06:17:40;;;;;;;11.77;9.57;;;;;;;;;;5073855;28;20455;-88
2023/12/19 06:20:07;;;;;;;11.60;9.03;;;;;;;;;;5070157;28;20449;-87
2023/12/19 06:22:35;;;;;;;11.47;9.00;;;;;;;;;;5079850;28;20794;-89
2023/12/19 06:25:01;;;;;;;11.30;9.60;;;;;;;;;;5078720;28;20531;-89
2023/12/19 06:27:28;;;;;;;12.00;9.10;;;;;;;;;;5077624;28;20503;-89
2023/12/19 06:29:55;;;;;;;12.10;9.53;;;;;;;;;;5077577;28;20443;-88
2023/12/19 06:32:22;;;;;;;18.53;9.50;;;;;;;;;;5077909;28;20439;-88
2023/12/19 06:34:48;;;;;;;11.23;8.80;;;;;;;;;;5071999;28;20528;-87
2023/12/19 06:37:14;;;;;;;8.70;6.70;;;;;;;;;;5076153;28;20668;-87
2023/12/19 06:39:43;;;;;;;11.27;7.83;;;;;;;;;;5074210;28;20467;-87
2023/12/19 06:42:09;;;;;;;10.57;8.80;;;;;;;;;;5080336;28;20455;-88
2023/12/19 06:44:36;;;;;;;11.37;8.57;;;;;;;;;;5077604;28;20499;-87
2023/12/19 06:47:02;;;;;;;9.73;7.73;;;;;;;;;;5074520;28;20500;-87
2023/12/19 06:49:29;;;;;;;12.97;9.10;;;;;;;;;;5075727;28;20945;-88
2023/12/19 06:51:55;;;;;;;9.57;7.37;;;;;;;;;;5079428;28;20524;-91
2023/12/19 06:54:22;;;;;;;9.43;7.53;;;;;;;;;;5074399;28;20455;-91
2023/12/19 06:56:49;;;;;;;10.87;8.30;;;;;;;;;;5089333;28;20857;-92
2023/12/19 06:59:18;;;;;;;10.67;7.63;;;;;;;;;;5084658;28;20482;-91
2023/12/19 07:04:48;;;;;;;9.27;7.37;;;;;;;;;;5085674;22;20525;-82
2023/12/19 07:07:15;;;;;;;10.27;8.33;;;;;;;;;;5069120;28;20982;-84
2023/12/19 07:09:42;;;;;;;10.13;7.80;;;;;;;;;;5063858;28;20453;-75
2023/12/19 07:12:10;;;;;;;8.40;7.30;;;;;;;;;;5069106;28;20505;-74
2023/12/19 07:14:36;;;;;;;9.70;7.80;;;;;;;;;;5072353;28;20479;-74
2023/12/19 07:17:02;;;;;;;10.10;7.10;;;;;;;;;;5071737;28;20459;-73
2023/12/19 07:19:29;;;;;;;7.67;6.13;;;;;;;;;;5069922;28;20451;-81
2023/12/19 07:21:55;;;;;;;8.70;5.97;;;;;;;;;;5068656;28;20494;-81
2023/12/19 07:24:21;;;;;;;7.57;6.20;;;;;;;;;;5074262;28;20492;-81
2023/12/19 07:26:48;;;;;;;6.97;5.33;;;;;;;;;;5076945;28;20536;-81
2023/12/19 07:29:16;;;;;;;6.77;5.07;;;;;;;;;;5074005;28;20476;-82
2023/12/19 07:31:42;;;;;;;6.73;5.60;;;;;;;;;;5065042;28;20460;-81
2023/12/19 07:34:09;;;;;;;9.00;6.23;;;;;;;;;;5077276;28;20440;-80
2023/12/19 07:36:35;;;;;;;6.53;5.70;;;;;;;;;;5076805;28;20456;-81
2023/12/19 07:39:03;;;;;;;5.47;4.80;;;;;;;;;;5070830;28;20444;-81
2023/12/19 07:41:31;;;;;;;5.83;5.03;;;;;;;;;;5067281;28;20460;-80
2023/12/19 07:43:57;;;;;;;6.47;5.00;;;;;;;;;;5062953;28;20526;-80
2023/12/19 07:46:25;;;;;;;5.57;4.23;;;;;;;;;;5071348;28;20519;-80
2023/12/19 07:48:52;;;;;;;5.20;4.07;;;;;;;;;;5071500;28;20455;-81
2023/12/19 07:51:19;;;;;;;5.77;4.80;;;;;;;;;;5066759;28;20460;-74
2023/12/19 07:53:46;;;;;;;4.63;4.00;;;;;;;;;;5069811;28;20444;-77
2023/12/19 07:56:12;;;;;;;6.77;4.60;;;;;;;;;;5062606;28;20455;-79
2023/12/19 07:58:38;;;;;;;6.03;4.30;;;;;;;;;;5068273;28;20511;-78
2023/12/19 08:01:05;;;;;;;5.90;5.00;;;;;;;;;;5066232;28;20483;-80
2023/12/19 08:03:33;;;;;;;4.47;3.60;;;;;;;;;;5064966;28;20468;-76
2023/12/19 08:06:00;;;;;;;4.60;3.80;;;;;;;;;;5046230;28;20493;-76
2023/12/19 08:08:26;;;;;;;4.87;4.37;;;;;;;;;;5048585;28;20477;-76
2023/12/19 08:10:53;;;;;;;4.90;3.63;;;;;;;;;;5047448;28;20879;-77
2023/12/19 08:13:20;;;;;;;4.40;3.90;;;;;;;;;;5049417;28;20500;-77
2023/12/19 08:15:47;;;;;;;4.73;4.00;;;;;;;;;;5048305;28;20535;-77
2023/12/19 08:18:13;;;;;;;4.17;3.77;;;;;;;;;;5047137;28;20441;-77
2023/12/19 08:20:41;;;;;;;3.83;3.43;;;;;;;;;;5046154;28;20532;-77
2023/12/19 08:23:08;;;;;;;4.53;3.20;;;;;;;;;;5046038;28;20462;-78
2023/12/19 08:25:34;;;;;;;3.67;3.30;;;;;;;;;;5051222;28;20457;-76
2023/12/19 08:28:01;;;;;;;3.87;3.47;;;;;;;;;;5050184;28;20477;-76
2023/12/19 08:30:28;;;;;;;3.83;3.40;;;;;;;;;;5044737;28;20445;-76
2023/12/19 08:32:55;;;;;;;4.90;4.00;;;;;;;;;;5049814;28;20452;-77
2023/12/19 08:35:21;;;;;;;3.87;3.50;;;;;;;;;;5048001;28;20446;-76
2023/12/19 08:37:49;;;;;;;4.10;3.50;;;;;;;;;;5054454;28;20472;-76
2023/12/19 08:40:16;;;;;;;4.07;3.67;;;;;;;;;;5052705;28;20515;-76
2023/12/19 08:42:42;;;;;;;3.70;3.40;;;;;;;;;;5055854;28;20457;-76
2023/12/19 08:45:14;;;;;;;5.47;4.20;;;;;;;;;;5049538;28;20517;-77
2023/12/19 08:47:40;;;;;;;4.83;3.80;;;;;;;;;;5055626;28;20481;-76
2023/12/19 08:50:08;;;;;;;4.73;4.10;;;;;;;;;;5045070;28;20543;-75
2023/12/19 08:52:37;;;;;;;5.13;4.40;;;;;;;;;;5046172;28;20453;-76
2023/12/19 08:55:06;;;;;;;4.97;3.73;;;;;;;;;;5054696;28;20528;-76
2023/12/19 08:57:34;;;;;;;5.10;4.37;;;;;;;;;;5055932;28;20459;-76
2023/12/19 09:00:00;;;;;;;3.97;3.60;;;;;;;;;;5054433;28;20462;-76
2023/12/19 09:02:27;;;;;;;5.00;3.83;;;;;;;;;;5058125;28;20610;-76
2023/12/19 09:04:53;;;;;;;4.37;3.50;;;;;;;;;;5058646;28;20512;-77
2023/12/19 09:07:20;;;;;;;4.70;4.20;;;;;;;;;;5059091;28;20546;-76
2023/12/19 09:09:47;;;;;;;7.50;4.70;;;;;;;;;;5046927;28;20579;-77
2023/12/19 09:12:14;;;;;;;7.27;5.60;;;;;;;;;;5059333;28;20547;-77
2023/12/19 09:14:41;;;;;;;6.97;5.63;;;;;;;;;;5058984;28;20524;-77
2023/12/19 09:17:07;;;;;;;9.27;7.50;;;;;;;;;;5056220;28;20469;-77
2023/12/19 09:19:34;;;;;;;9.67;7.40;;;;;;;;;;5058745;28;20458;-77
2023/12/19 09:22:01;;;;;;;11.83;8.03;;;;;;;;;;5057795;28;20456;-76
2023/12/19 09:24:30;;;;;;;11.33;8.27;;;;;;;;;;5056481;28;20492;-77
2023/12/19 09:26:57;;;;;;;8.67;7.73;;;;;;;;;;5056365;28;20484;-77
2023/12/19 09:29:27;;;;;;;13.63;8.50;;;;;;;;;;5058963;28;20467;-76
2023/12/19 09:31:53;;;;;;;10.60;8.00;;;;;;;;;;5058569;28;20441;-76
2023/12/19 09:34:20;;;;;;;17.80;8.80;;;;;;;;;;5058155;28;20484;-76
2023/12/19 09:36:46;;;;;;;11.10;8.80;;;;;;;;;;5059370;28;20540;-77
2023/12/19 09:39:14;;;;;;;9.40;8.30;;;;;;;;;;5058695;28;20892;-76
2023/12/19 09:41:40;;;;;;;8.77;7.00;;;;;;;;;;5051944;28;20457;-77
2023/12/19 09:44:07;;;;;;;11.67;8.03;;;;;;;;;;5046872;28;21126;-77
2023/12/19 09:46:35;;;;;;;9.10;7.50;;;;;;;;;;5051291;28;20455;-77
2023/12/19 09:49:02;;;;;;;12.93;7.23;;;;;;;;;;5058654;28;20452;-77
2023/12/19 09:51:29;;;;;;;11.37;9.50;;;;;;;;;;5058618;28;20552;-77
2023/12/19 09:53:57;;;;;;;13.70;11.10;;;;;;;;;;5058362;28;20449;-77
2023/12/19 09:56:24;;;;;;;17.80;10.90;;;;;;;;;;5054203;28;20471;-77
2023/12/19 09:58:52;;;;;;;13.80;10.50;;;;;;;;;;5058715;28;20452;-77
2023/12/19 10:01:18;;;;;;;14.93;10.63;;;;;;;;;;5052467;28;20965;-77
2023/12/19 10:03:46;;;;;;;14.20;11.07;;;;;;;;;;5054789;28;20505;-77
2023/12/19 10:06:12;;;;;;;19.73;12.43;;;;;;;;;;5076612;28;20516;-77
2023/12/19 10:08:40;;;;;;;18.80;12.33;;;;;;;;;;5073334;28;20563;-77
2023/12/19 10:11:07;;;;;;;18.90;14.00;;;;;;;;;;5078500;28;21208;-77
2023/12/19 10:13:35;;;;;;;17.00;13.10;;;;;;;;;;5076436;28;20546;-78
2023/12/19 10:16:02;;;;;;;18.77;13.20;;;;;;;;;;5078303;28;20489;-77
2023/12/19 10:18:28;;;;;;;17.70;13.30;;;;;;;;;;5076707;28;20527;-77
2023/12/19 10:21:08;;;;;;;19.07;13.57;;;;;;;;;;5078768;28;20455;-76
2023/12/19 10:23:34;;;;;;;16.70;12.33;;;;;;;;;;5074750;28;20517;-77
2023/12/19 10:26:01;;;;;;;16.23;12.77;;;;;;;;;;5070482;28;20453;-78
2023/12/19 10:28:27;;;;;;;17.80;11.40;;;;;;;;;;5071675;28;20598;-77
2023/12/19 10:31:09;;;;;;;16.57;13.40;;;;;;;;;;5078031;28;20548;-77
2023/12/19 10:33:40;;;;;;;20.10;14.10;;;;;;;;;;5077652;28;20531;-78
2023/12/19 10:36:07;;;;;;;15.30;11.23;;;;;;;;;;5078196;28;20523;-76
2023/12/19 10:38:45;;;;;;;21.27;13.70;;;;;;;;;;5070597;28;20454;-76
2023/12/19 10:41:17;;;;;;;19.80;14.43;;;;;;;;;;5076572;28;20820;-77
2023/12/19 10:43:44;;;;;;;22.10;14.27;;;;;;;;;;5075183;28;20524;-77
2023/12/19 10:46:10;;;;;;;19.63;13.63;;;;;;;;;;5067097;28;20484;-77
2023/12/19 10:48:37;;;;;;;18.60;13.27;;;;;;;;;;5074050;28;20539;-76
2023/12/19 10:51:04;;;;;;;18.43;13.73;;;;;;;;;;5076625;28;20475;-76
2023/12/19 10:53:33;;;;;;;14.10;11.17;;;;;;;;;;5072705;28;20519;-76
2023/12/19 10:56:00;;;;;;;13.67;10.90;;;;;;;;;;5071267;28;20452;-76
2023/12/19 10:58:27;;;;;;;13.33;10.60;;;;;;;;;;5067649;28;20471;-76
2023/12/19 11:00:55;;;;;;;12.53;9.93;;;;;;;;;;5069267;28;20459;-76
2023/12/19 11:03:24;;;;;;;11.30;8.20;;;;;;;;;;5068775;28;20468;-76
2023/12/19 11:05:51;;;;;;;10.53;7.37;;;;;;;;;;5056005;28;20500;-76
2023/12/19 11:08:18;;;;;;;9.93;7.60;;;;;;;;;;5053925;28;20956;-76
2023/12/19 11:10:48;;;;;;;10.37;7.70;;;;;;;;;;5052860;28;20477;-76
2023/12/19 11:13:15;;;;;;;10.50;7.63;;;;;;;;;;5052533;28;20437;-76
2023/12/19 11:15:45;;;;;;;9.27;7.60;;;;;;;;;;5051641;28;20571;-75
2023/12/19 11:18:15;;;;;;;9.23;8.13;;;;;;;;;;5051629;28;20444;-76
2023/12/19 11:20:42;;;;;;;9.33;7.67;;;;;;;;;;5055968;28;20516;-77
2023/12/19 11:23:14;;;;;;;9.43;7.60;;;;;;;;;;5055504;28;20487;-77
2023/12/19 11:25:44;;;;;;;10.37;7.77;;;;;;;;;;5053654;28;20473;-77
2023/12/19 11:28:11;;;;;;;7.90;6.87;;;;;;;;;;5055682;28;21060;-77
2023/12/19 11:30:40;;;;;;;6.33;5.60;;;;;;;;;;5050221;28;20486;-75
2023/12/19 11:33:07;;;;;;;7.23;5.87;;;;;;;;;;5051572;28;20457;-76
2023/12/19 11:35:33;;;;;;;7.67;6.50;;;;;;;;;;5053624;28;20450;-76
2023/12/19 11:38:29;;;;;;;7.13;6.40;;;;;;;;;;5052654;28;20472;-76
2023/12/19 11:40:57;;;;;;;7.30;6.20;;;;;;;;;;5053116;28;20463;-76
2023/12/19 11:43:42;;;;;;;6.30;5.67;;;;;;;;;;5051981;28;20445;-76
2023/12/19 11:46:18;;;;;;;7.83;5.47;;;;;;;;;;5049393;28;20453;-76
2023/12/19 11:48:49;;;;;;;6.93;5.63;;;;;;;;;;5050243;28;20484;-77
2023/12/19 11:51:35;;;;;;;6.17;5.23;;;;;;;;;;5051296;28;20479;-76
2023/12/19 11:54:02;;;;;;;7.30;6.33;;;;;;;;;;5048385;28;20531;-78
2023/12/19 11:56:30;;;;;;;7.80;6.57;;;;;;;;;;5054002;28;20483;-77
2023/12/19 11:58:56;;;;;;;8.33;6.17;;;;;;;;;;5050964;28;20480;-76
2023/12/19 12:01:25;;;;;;;7.47;6.77;;;;;;;;;;5053721;28;20507;-78
2023/12/19 12:04:03;;;;;;;10.57;7.23;;;;;;;;;;5044072;28;20466;-78
2023/12/19 12:06:30;;;;;;;8.30;6.47;;;;;;;;;;5052880;28;20453;-78
2023/12/19 12:08:57;;;;;;;10.93;7.10;;;;;;;;;;5051797;28;20491;-79
2023/12/19 12:11:24;;;;;;;7.70;6.80;;;;;;;;;;5049661;28;20465;-79
2023/12/19 12:14:00;;;;;;;10.17;8.03;;;;;;;;;;5050783;28;20504;-78
2023/12/19 12:16:36;;;;;;;8.83;6.80;;;;;;;;;;5045103;28;20689;-80
2023/12/19 12:19:09;;;;;;;8.43;7.60;;;;;;;;;;5051913;28;20451;-78
2023/12/19 12:21:35;;;;;;;12.33;6.83;;;;;;;;;;5049305;28;20492;-81
2023/12/19 12:24:02;;;;;;;8.47;6.60;;;;;;;;;;5051325;28;20465;-79
2023/12/19 12:26:29;;;;;;;8.77;7.30;;;;;;;;;;5049509;28;20484;-79
2023/12/19 12:28:55;;;;;;;6.67;5.60;;;;;;;;;;5052975;28;20552;-79
2023/12/19 12:31:22;;;;;;;6.90;6.20;;;;;;;;;;5052188;28;21021;-79
2023/12/19 12:33:49;;;;;;;5.90;5.30;;;;;;;;;;5046487;28;20473;-78
2023/12/19 12:36:16;;;;;;;7.87;5.70;;;;;;;;;;5048760;28;20520;-79
2023/12/19 12:38:42;;;;;;;7.37;5.67;;;;;;;;;;5051005;28;20440;-79
2023/12/19 12:41:09;;;;;;;6.87;5.63;;;;;;;;;;5055645;28;20584;-79
2023/12/19 12:43:36;;;;;;;6.20;5.40;;;;;;;;;;5055331;28;20559;-78
2023/12/19 12:46:07;;;;;;;6.33;5.73;;;;;;;;;;5053486;28;20486;-78
2023/12/19 12:48:33;;;;;;;5.43;4.93;;;;;;;;;;5057967;28;20472;-78
2023/12/19 12:51:02;;;;;;;7.53;5.60;;;;;;;;;;5054149;28;20493;-80
2023/12/19 12:53:28;;;;;;;6.47;5.77;;;;;;;;;;5056697;28;20495;-78
2023/12/19 12:56:08;;;;;;;6.83;6.13;;;;;;;;;;5050609;28;20476;-79
2023/12/19 12:58:35;;;;;;;6.20;5.60;;;;;;;;;;5050300;28;20449;-79
2023/12/19 13:01:01;;;;;;;6.63;5.63;;;;;;;;;;5051861;28;20484;-78
2023/12/19 13:03:28;;;;;;;6.33;5.03;;;;;;;;;;5056627;28;21110;-78
2023/12/19 13:05:54;;;;;;;7.10;6.13;;;;;;;;;;5055808;28;20591;-78
2023/12/19 13:08:22;;;;;;;5.93;5.33;;;;;;;;;;5055439;28;20486;-78
2023/12/19 13:10:49;;;;;;;8.00;5.67;;;;;;;;;;5053472;28;20495;-78
2023/12/19 13:13:16;;;;;;;5.10;4.60;;;;;;;;;;5053780;28;20852;-78
2023/12/19 13:15:42;;;;;;;5.30;4.80;;;;;;;;;;5051643;28;20475;-77
2023/12/19 13:18:09;;;;;;;5.50;4.90;;;;;;;;;;5049144;28;20481;-72
2023/12/19 13:20:37;;;;;;;6.70;5.07;;;;;;;;;;5042124;28;20470;-72
2023/12/19 13:23:06;;;;;;;5.30;4.70;;;;;;;;;;5058792;28;21066;-72
2023/12/19 13:25:34;;;;;;;6.03;5.43;;;;;;;;;;5055193;28;20453;-72
2023/12/19 13:28:02;;;;;;;6.30;5.00;;;;;;;;;;5050154;28;20476;-72
2023/12/19 13:30:29;;;;;;;5.90;5.30;;;;;;;;;;5054892;28;20548;-71
2023/12/19 13:32:56;;;;;;;5.70;5.20;;;;;;;;;;5057008;28;20449;-72
2023/12/19 13:35:22;;;;;;;5.73;5.07;;;;;;;;;;5049911;28;20454;-72
2023/12/19 13:37:49;;;;;;;5.93;4.87;;;;;;;;;;5055591;28;21072;-71
2023/12/19 13:40:15;;;;;;;5.50;5.00;;;;;;;;;;5049788;28;20992;-71
2023/12/19 13:42:43;;;;;;;5.20;4.73;;;;;;;;;;5054993;28;20476;-71
2023/12/19 13:45:09;;;;;;;5.50;4.90;;;;;;;;;;5057264;28;20551;-70
2023/12/19 13:47:36;;;;;;;5.27;4.77;;;;;;;;;;5055489;28;22173;-71
2023/12/19 13:50:03;;;;;;;5.17;4.77;;;;;;;;;;5058198;28;20477;-71
2023/12/19 13:52:29;;;;;;;5.73;4.80;;;;;;;;;;5058294;28;20507;-71
2023/12/19 13:54:56;;;;;;;5.10;4.40;;;;;;;;;;5057486;28;20487;-70
2023/12/19 13:57:22;;;;;;;5.13;4.63;;;;;;;;;;5053169;28;20485;-73
2023/12/19 13:59:50;;;;;;;4.73;4.20;;;;;;;;;;5050282;28;20540;-70
2023/12/19 14:02:18;;;;;;;3.70;3.40;;;;;;;;;;5055745;28;20476;-71
2023/12/19 14:04:44;;;;;;;4.93;4.43;;;;;;;;;;5064063;28;20526;-73
2023/12/19 14:07:14;;;;;;;4.93;4.30;;;;;;;;;;5075660;28;20524;-72
2023/12/19 14:09:40;;;;;;;4.33;3.93;;;;;;;;;;5070992;28;20989;-70
2023/12/19 14:12:07;;;;;;;4.07;3.67;;;;;;;;;;5074586;28;20512;-72
2023/12/19 14:14:33;;;;;;;4.23;3.83;;;;;;;;;;5075690;28;20499;-76
2023/12/19 14:17:01;;;;;;;5.57;3.60;;;;;;;;;;5077592;28;20460;-70
2023/12/19 14:19:27;;;;;;;5.13;3.90;;;;;;;;;;5075289;28;20451;-68
2023/12/19 14:21:54;;;;;;;3.63;3.30;;;;;;;;;;5073051;28;20479;-72
2023/12/19 14:24:20;;;;;;;4.17;3.77;;;;;;;;;;5076372;28;20502;-69
2023/12/19 14:26:47;;;;;;;3.73;3.43;;;;;;;;;;5077843;28;20487;-69
2023/12/19 14:29:13;;;;;;;4.17;3.63;;;;;;;;;;5077255;28;20543;-68
2023/12/19 14:31:39;;;;;;;3.77;3.47;;;;;;;;;;5075125;28;20494;-69